sensor_id;sensor_type;location;lat;lon;timestamp;pressure;altitude;pressure_sealevel;temperature;humidity
62038;BME280;47991;42.974;12.082;2023-07-24T00:01:19;97711.13;;;23.77;69.79
62038;BME280;47991;42.974;12.082;2023-07-24T00:03:46;97711.68;;;23.61;71.45
62038;BME280;47991;42.974;12.082;2023-07-24T00:06:13;97706.36;;;23.58;70.15
62038;BME280;47991;42.974;12.082;2023-07-24T00:08:40;97704.04;;;23.62;71.27
62038;BME280;47991;42.974;12.082;2023-07-24T00:11:08;97701.48;;;23.54;71.27
62038;BME280;47991;42.974;12.082;2023-07-24T00:13:35;97698.20;;;23.45;70.88
62038;BME280;47991;42.974;12.082;2023-07-24T00:16:07;97698.37;;;23.45;71.83
62038;BME280;47991;42.974;12.082;2023-07-24T00:18:34;97702.20;;;23.27;72.35
62038;BME280;47991;42.974;12.082;2023-07-24T00:21:01;97701.48;;;23.23;72.29
62038;BME280;47991;42.974;12.082;2023-07-24T00:23:28;97700.80;;;23.20;71.41
62038;BME280;47991;42.974;12.082;2023-07-24T00:25:55;97701.59;;;23.30;70.73
62038;BME280;47991;42.974;12.082;2023-07-24T00:28:22;97699.23;;;23.37;70.68
62038;BME280;47991;42.974;12.082;2023-07-24T00:30:49;97694.02;;;23.43;70.43
62038;BME280;47991;42.974;12.082;2023-07-24T00:33:16;97693.81;;;23.50;70.02
62038;BME280;47991;42.974;12.082;2023-07-24T00:35:43;97699.80;;;23.57;69.85
62038;BME280;47991;42.974;12.082;2023-07-24T00:38:09;97703.00;;;23.59;69.48
62038;BME280;47991;42.974;12.082;2023-07-24T00:40:37;97702.81;;;23.62;69.73
62038;BME280;47991;42.974;12.082;2023-07-24T00:43:04;97693.95;;;23.66;69.57
62038;BME280;47991;42.974;12.082;2023-07-24T00:45:31;97693.98;;;23.70;69.55
62038;BME280;47991;42.974;12.082;2023-07-24T00:47:59;97693.11;;;23.65;69.72
62038;BME280;47991;42.974;12.082;2023-07-24T00:50:27;97696.77;;;23.61;69.78
62038;BME280;47991;42.974;12.082;2023-07-24T00:52:56;97694.44;;;23.58;70.40
62038;BME280;47991;42.974;12.082;2023-07-24T00:55:23;97693.29;;;23.41;70.83
62038;BME280;47991;42.974;12.082;2023-07-24T00:57:51;97698.00;;;23.32;70.91
62038;BME280;47991;42.974;12.082;2023-07-24T01:00:18;97694.08;;;23.27;71.76
62038;BME280;47991;42.974;12.082;2023-07-24T01:02:45;97692.20;;;23.10;72.18
62038;BME280;47991;42.974;12.082;2023-07-24T01:05:16;97693.34;;;23.05;72.21
62038;BME280;47991;42.974;12.082;2023-07-24T01:07:43;97700.58;;;23.05;72.07
62038;BME280;47991;42.974;12.082;2023-07-24T01:10:10;97697.85;;;23.00;71.92
62038;BME280;47991;42.974;12.082;2023-07-24T01:12:59;97693.48;;;22.94;72.13
62038;BME280;47991;42.974;12.082;2023-07-24T01:18:06;97688.04;;;22.99;73.07
62038;BME280;47991;42.974;12.082;2023-07-24T01:20:37;97682.91;;;22.86;73.31
62038;BME280;47991;42.974;12.082;2023-07-24T01:25:57;97679.14;;;22.88;73.46
62038;BME280;47991;42.974;12.082;2023-07-24T01:28:25;97685.61;;;22.89;73.39
62038;BME280;47991;42.974;12.082;2023-07-24T01:30:53;97695.83;;;22.85;73.99
62038;BME280;47991;42.974;12.082;2023-07-24T01:33:21;97700.40;;;22.84;73.92
62038;BME280;47991;42.974;12.082;2023-07-24T01:35:53;97702.70;;;22.84;74.36
62038;BME280;47991;42.974;12.082;2023-07-24T01:38:21;97697.73;;;22.70;74.38
62038;BME280;47991;42.974;12.082;2023-07-24T01:40:52;97688.49;;;22.73;74.29
62038;BME280;47991;42.974;12.082;2023-07-24T01:43:20;97688.04;;;22.62;77.34
62038;BME280;47991;42.974;12.082;2023-07-24T01:45:47;97672.11;;;22.45;76.17
62038;BME280;47991;42.974;12.082;2023-07-24T01:56:54;97642.69;;;22.55;76.45
62038;BME280;47991;42.974;12.082;2023-07-24T01:59:22;97657.47;;;22.48;76.95
62038;BME280;47991;42.974;12.082;2023-07-24T02:01:49;97658.04;;;22.52;77.25
62038;BME280;47991;42.974;12.082;2023-07-24T02:04:15;97662.31;;;22.66;76.80
62038;BME280;47991;42.974;12.082;2023-07-24T02:06:42;97665.13;;;22.76;77.00
62038;BME280;47991;42.974;12.082;2023-07-24T02:09:10;97658.89;;;22.82;77.93
62038;BME280;47991;42.974;12.082;2023-07-24T02:11:37;97651.19;;;22.73;77.84
62038;BME280;47991;42.974;12.082;2023-07-24T02:14:04;97649.71;;;22.64;79.45
62038;BME280;47991;42.974;12.082;2023-07-24T02:16:31;97663.28;;;22.52;78.18
62038;BME280;47991;42.974;12.082;2023-07-24T02:18:58;97677.37;;;22.58;77.90
62038;BME280;47991;42.974;12.082;2023-07-24T02:21:25;97667.64;;;22.65;77.46
62038;BME280;47991;42.974;12.082;2023-07-24T02:23:51;97664.58;;;22.67;77.55
62038;BME280;47991;42.974;12.082;2023-07-24T02:26:18;97665.29;;;22.67;78.12
62038;BME280;47991;42.974;12.082;2023-07-24T02:28:45;97664.13;;;22.58;80.27
62038;BME280;47991;42.974;12.082;2023-07-24T02:31:12;97660.05;;;22.42;79.50
62038;BME280;47991;42.974;12.082;2023-07-24T02:33:39;97664.48;;;22.39;78.51
62038;BME280;47991;42.974;12.082;2023-07-24T02:36:06;97673.44;;;22.42;78.95
62038;BME280;47991;42.974;12.082;2023-07-24T02:38:34;97676.26;;;22.45;79.02
62038;BME280;47991;42.974;12.082;2023-07-24T02:41:00;97683.67;;;22.56;78.21
62038;BME280;47991;42.974;12.082;2023-07-24T02:43:28;97671.65;;;22.65;78.14
62038;BME280;47991;42.974;12.082;2023-07-24T02:45:55;97650.56;;;22.58;79.33
62038;BME280;47991;42.974;12.082;2023-07-24T02:48:22;97636.11;;;22.35;81.04
62038;BME280;47991;42.974;12.082;2023-07-24T02:50:48;97626.05;;;22.23;80.32
62038;BME280;47991;42.974;12.082;2023-07-24T02:53:15;97627.88;;;22.18;80.00
62038;BME280;47991;42.974;12.082;2023-07-24T02:55:43;97642.24;;;22.19;80.49
62038;BME280;47991;42.974;12.082;2023-07-24T02:58:12;97646.28;;;22.18;80.23
62038;BME280;47991;42.974;12.082;2023-07-24T03:00:39;97653.44;;;22.30;80.27
62038;BME280;47991;42.974;12.082;2023-07-24T03:03:07;97670.08;;;22.36;81.16
62038;BME280;47991;42.974;12.082;2023-07-24T03:05:34;97691.84;;;22.39;81.62
62038;BME280;47991;42.974;12.082;2023-07-24T03:08:01;97718.77;;;22.40;81.44
62038;BME280;47991;42.974;12.082;2023-07-24T03:10:29;97732.17;;;22.49;80.51
62038;BME280;47991;42.974;12.082;2023-07-24T03:12:56;97729.10;;;22.53;80.32
62038;BME280;47991;42.974;12.082;2023-07-24T03:15:23;97721.47;;;22.43;80.32
62038;BME280;47991;42.974;12.082;2023-07-24T03:21:26;97692.89;;;22.30;80.59
62038;BME280;47991;42.974;12.082;2023-07-24T03:24:12;97694.02;;;22.29;81.08
62038;BME280;47991;42.974;12.082;2023-07-24T03:26:39;97701.00;;;22.23;81.76
62038;BME280;47991;42.974;12.082;2023-07-24T03:29:06;97690.89;;;22.23;81.86
62038;BME280;47991;42.974;12.082;2023-07-24T03:31:33;97692.25;;;22.27;82.78
62038;BME280;47991;42.974;12.082;2023-07-24T03:34:00;97692.81;;;22.33;82.89
62038;BME280;47991;42.974;12.082;2023-07-24T03:36:26;97693.67;;;22.38;83.62
62038;BME280;47991;42.974;12.082;2023-07-24T03:38:54;97689.48;;;22.44;82.38
62038;BME280;47991;42.974;12.082;2023-07-24T03:41:21;97686.15;;;22.54;82.52
62038;BME280;47991;42.974;12.082;2023-07-24T03:43:48;97683.99;;;22.59;81.93
62038;BME280;47991;42.974;12.082;2023-07-24T03:46:15;97687.29;;;22.58;82.77
62038;BME280;47991;42.974;12.082;2023-07-24T03:48:42;97702.66;;;22.55;82.89
62038;BME280;47991;42.974;12.082;2023-07-24T03:51:09;97697.98;;;22.48;82.95
62038;BME280;47991;42.974;12.082;2023-07-24T03:53:36;97709.03;;;22.47;82.62
62038;BME280;47991;42.974;12.082;2023-07-24T03:56:03;97715.47;;;22.50;82.46
62038;BME280;47991;42.974;12.082;2023-07-24T03:58:30;97714.39;;;22.53;82.43
62038;BME280;47991;42.974;12.082;2023-07-24T04:00:57;97710.01;;;22.58;82.03
62038;BME280;47991;42.974;12.082;2023-07-24T04:03:24;97707.35;;;22.57;82.48
62038;BME280;47991;42.974;12.082;2023-07-24T04:05:52;97692.51;;;22.40;83.93
62038;BME280;47991;42.974;12.082;2023-07-24T04:08:19;97655.44;;;22.18;86.89
62038;BME280;47991;42.974;12.082;2023-07-24T04:10:46;97632.86;;;21.96;87.61
62038;BME280;47991;42.974;12.082;2023-07-24T04:13:13;97629.71;;;21.97;86.21
62038;BME280;47991;42.974;12.082;2023-07-24T04:15:40;97611.31;;;22.09;85.11
62038;BME280;47991;42.974;12.082;2023-07-24T04:18:06;97622.77;;;22.23;85.18
62038;BME280;47991;42.974;12.082;2023-07-24T04:20:34;97664.52;;;22.34;85.26
62038;BME280;47991;42.974;12.082;2023-07-24T04:23:01;97682.54;;;22.45;85.50
62038;BME280;47991;42.974;12.082;2023-07-24T04:25:28;97691.84;;;22.60;84.66
62038;BME280;47991;42.974;12.082;2023-07-24T04:27:54;97691.23;;;22.58;84.95
62038;BME280;47991;42.974;12.082;2023-07-24T04:30:22;97667.42;;;22.45;86.07
62038;BME280;47991;42.974;12.082;2023-07-24T04:32:49;97686.73;;;22.37;89.19
62038;BME280;47991;42.974;12.082;2023-07-24T04:35:17;97681.98;;;22.27;89.00
62038;BME280;47991;42.974;12.082;2023-07-24T04:37:44;97689.63;;;22.35;87.75
62038;BME280;47991;42.974;12.082;2023-07-24T04:40:11;97676.69;;;22.46;86.88
62038;BME280;47991;42.974;12.082;2023-07-24T04:42:38;97655.67;;;22.55;87.10
62038;BME280;47991;42.974;12.082;2023-07-24T04:45:06;97622.94;;;22.52;87.60
62038;BME280;47991;42.974;12.082;2023-07-24T04:47:33;97612.80;;;22.61;86.27
62038;BME280;47991;42.974;12.082;2023-07-24T04:50:00;97566.88;;;22.72;85.82
62038;BME280;47991;42.974;12.082;2023-07-24T04:52:27;97537.11;;;22.77;85.81
62038;BME280;47991;42.974;12.082;2023-07-24T04:54:54;97563.84;;;22.92;85.19
62038;BME280;47991;42.974;12.082;2023-07-24T04:57:21;97578.39;;;23.06;84.71
62038;BME280;47991;42.974;12.082;2023-07-24T04:59:48;97584.07;;;23.23;83.92
62038;BME280;47991;42.974;12.082;2023-07-24T05:02:15;97582.41;;;23.39;83.09
62038;BME280;47991;42.974;12.082;2023-07-24T05:04:42;97577.84;;;23.52;82.65
62038;BME280;47991;42.974;12.082;2023-07-24T05:07:08;97585.02;;;23.59;82.53
62038;BME280;47991;42.974;12.082;2023-07-24T05:09:35;97580.48;;;23.68;82.43
62038;BME280;47991;42.974;12.082;2023-07-24T05:12:02;97555.81;;;23.84;82.02
62038;BME280;47991;42.974;12.082;2023-07-24T05:14:29;97556.34;;;24.01;81.29
62038;BME280;47991;42.974;12.082;2023-07-24T05:16:56;97561.27;;;24.05;81.22
62038;BME280;47991;42.974;12.082;2023-07-24T05:19:23;97576.38;;;24.18;80.49
62038;BME280;47991;42.974;12.082;2023-07-24T05:21:50;97596.73;;;24.25;78.59
62038;BME280;47991;42.974;12.082;2023-07-24T05:24:17;97590.68;;;24.30;78.45
62038;BME280;47991;42.974;12.082;2023-07-24T05:26:44;97585.51;;;24.25;79.03
62038;BME280;47991;42.974;12.082;2023-07-24T05:29:10;97601.80;;;24.35;78.97
62038;BME280;47991;42.974;12.082;2023-07-24T05:31:37;97598.20;;;24.45;78.76
62038;BME280;47991;42.974;12.082;2023-07-24T05:34:04;97593.10;;;24.54;77.80
62038;BME280;47991;42.974;12.082;2023-07-24T05:36:31;97586.55;;;24.74;76.37
62038;BME280;47991;42.974;12.082;2023-07-24T05:38:59;97586.14;;;25.18;74.04
62038;BME280;47991;42.974;12.082;2023-07-24T05:41:26;97572.79;;;26.08;72.62
62038;BME280;47991;42.974;12.082;2023-07-24T05:43:53;97564.15;;;26.65;69.28
62038;BME280;47991;42.974;12.082;2023-07-24T05:46:22;97567.80;;;26.87;69.23
62038;BME280;47991;42.974;12.082;2023-07-24T05:48:49;97558.97;;;26.79;70.81
62038;BME280;47991;42.974;12.082;2023-07-24T05:51:16;97569.66;;;26.66;70.76
62038;BME280;47991;42.974;12.082;2023-07-24T05:53:43;97587.77;;;26.51;70.88
62038;BME280;47991;42.974;12.082;2023-07-24T05:56:10;97597.44;;;26.45;70.15
62038;BME280;47991;42.974;12.082;2023-07-24T05:58:38;97606.55;;;26.40;70.76
62038;BME280;47991;42.974;12.082;2023-07-24T06:01:05;97598.73;;;26.50;69.77
62038;BME280;47991;42.974;12.082;2023-07-24T06:03:34;97606.31;;;26.41;70.06
62038;BME280;47991;42.974;12.082;2023-07-24T06:06:02;97604.60;;;26.30;70.18
62038;BME280;47991;42.974;12.082;2023-07-24T06:08:29;97617.17;;;26.26;69.20
62038;BME280;47991;42.974;12.082;2023-07-24T06:10:56;97622.34;;;26.38;69.05
62038;BME280;47991;42.974;12.082;2023-07-24T06:13:23;97623.59;;;26.54;68.87
62038;BME280;47991;42.974;12.082;2023-07-24T06:15:51;97619.54;;;26.75;68.71
62038;BME280;47991;42.974;12.082;2023-07-24T06:18:19;97608.05;;;26.98;68.08
62038;BME280;47991;42.974;12.082;2023-07-24T06:20:46;97610.95;;;26.94;67.83
62038;BME280;47991;42.974;12.082;2023-07-24T06:23:13;97606.67;;;26.86;68.42
62038;BME280;47991;42.974;12.082;2023-07-24T06:25:41;97600.47;;;26.89;68.38
62038;BME280;47991;42.974;12.082;2023-07-24T06:28:07;97595.10;;;27.17;67.39
62038;BME280;47991;42.974;12.082;2023-07-24T06:30:34;97586.84;;;27.46;66.06
62038;BME280;47991;42.974;12.082;2023-07-24T06:33:01;97580.53;;;27.56;65.46
62038;BME280;47991;42.974;12.082;2023-07-24T06:35:29;97586.45;;;27.84;65.67
62038;BME280;47991;42.974;12.082;2023-07-24T06:37:56;97603.50;;;27.79;65.82
62038;BME280;47991;42.974;12.082;2023-07-24T06:40:23;97582.89;;;27.74;66.33
62038;BME280;47991;42.974;12.082;2023-07-24T06:42:49;97562.73;;;27.90;65.79
62038;BME280;47991;42.974;12.082;2023-07-24T06:45:16;97558.48;;;27.82;63.62
62038;BME280;47991;42.974;12.082;2023-07-24T06:47:43;97558.63;;;27.77;65.06
62038;BME280;47991;42.974;12.082;2023-07-24T06:50:10;97556.77;;;27.94;63.24
62038;BME280;47991;42.974;12.082;2023-07-24T06:52:37;97536.66;;;27.90;62.01
62038;BME280;47991;42.974;12.082;2023-07-24T06:55:04;97533.44;;;28.12;63.05
62038;BME280;47991;42.974;12.082;2023-07-24T06:57:31;97566.36;;;28.49;62.72
62038;BME280;47991;42.974;12.082;2023-07-24T06:59:58;97579.97;;;28.84;60.91
62038;BME280;47991;42.974;12.082;2023-07-24T07:02:25;97566.80;;;28.84;60.57
62038;BME280;47991;42.974;12.082;2023-07-24T07:04:52;97566.35;;;28.92;60.85
62038;BME280;47991;42.974;12.082;2023-07-24T07:07:19;97565.63;;;29.05;60.10
62038;BME280;47991;42.974;12.082;2023-07-24T07:09:46;97565.14;;;29.24;59.49
62038;BME280;47991;42.974;12.082;2023-07-24T07:12:13;97568.96;;;29.45;58.95
62038;BME280;47991;42.974;12.082;2023-07-24T07:14:40;97572.35;;;29.68;59.29
62038;BME280;47991;42.974;12.082;2023-07-24T07:17:07;97573.73;;;29.91;58.12
62038;BME280;47991;42.974;12.082;2023-07-24T07:19:33;97584.16;;;29.87;58.16
62038;BME280;47991;42.974;12.082;2023-07-24T07:22:02;97591.88;;;30.08;58.24
62038;BME280;47991;42.974;12.082;2023-07-24T07:24:29;97596.91;;;30.23;58.11
62038;BME280;47991;42.974;12.082;2023-07-24T07:26:56;97595.18;;;30.45;57.66
62038;BME280;47991;42.974;12.082;2023-07-24T07:29:23;97587.55;;;30.55;56.39
62038;BME280;47991;42.974;12.082;2023-07-24T07:31:50;97569.32;;;30.38;54.94
62038;BME280;47991;42.974;12.082;2023-07-24T07:34:17;97562.39;;;30.07;55.31
62038;BME280;47991;42.974;12.082;2023-07-24T07:36:44;97551.68;;;29.79;57.12
62038;BME280;47991;42.974;12.082;2023-07-24T07:39:10;97563.60;;;29.43;57.83
62038;BME280;47991;42.974;12.082;2023-07-24T07:41:37;97563.92;;;29.55;58.58
62038;BME280;47991;42.974;12.082;2023-07-24T07:44:04;97557.34;;;29.74;58.53
62038;BME280;47991;42.974;12.082;2023-07-24T07:46:31;97558.79;;;29.82;58.13
62038;BME280;47991;42.974;12.082;2023-07-24T07:48:58;97562.65;;;29.78;57.79
62038;BME280;47991;42.974;12.082;2023-07-24T07:51:25;97558.64;;;30.01;57.20
62038;BME280;47991;42.974;12.082;2023-07-24T07:53:52;97563.93;;;30.16;56.93
62038;BME280;47991;42.974;12.082;2023-07-24T07:56:19;97567.51;;;29.96;57.62
62038;BME280;47991;42.974;12.082;2023-07-24T07:58:46;97575.36;;;29.84;57.02
62038;BME280;47991;42.974;12.082;2023-07-24T08:01:13;97585.10;;;30.09;57.29
62038;BME280;47991;42.974;12.082;2023-07-24T08:03:40;97594.86;;;30.30;55.17
62038;BME280;47991;42.974;12.082;2023-07-24T08:06:07;97605.80;;;30.38;53.98
62038;BME280;47991;42.974;12.082;2023-07-24T08:08:35;97621.09;;;30.72;55.11
62038;BME280;47991;42.974;12.082;2023-07-24T08:11:05;97633.38;;;31.14;54.30
62038;BME280;47991;42.974;12.082;2023-07-24T08:13:33;97638.70;;;31.39;53.26
62038;BME280;47991;42.974;12.082;2023-07-24T08:16:01;97625.95;;;31.53;52.47
62038;BME280;47991;42.974;12.082;2023-07-24T08:18:30;97620.20;;;31.76;52.06
62038;BME280;47991;42.974;12.082;2023-07-24T08:20:57;97620.55;;;31.85;49.80
62038;BME280;47991;42.974;12.082;2023-07-24T08:23:24;97618.77;;;31.80;50.13
62038;BME280;47991;42.974;12.082;2023-07-24T08:25:52;97602.57;;;31.82;50.77
62038;BME280;47991;42.974;12.082;2023-07-24T08:28:20;97589.52;;;31.89;49.37
62038;BME280;47991;42.974;12.082;2023-07-24T08:30:56;97582.64;;;32.03;49.96
62038;BME280;47991;42.974;12.082;2023-07-24T08:33:24;97568.58;;;32.21;49.18
62038;BME280;47991;42.974;12.082;2023-07-24T08:36:01;97564.38;;;32.27;49.57
62038;BME280;47991;42.974;12.082;2023-07-24T08:38:28;97564.02;;;31.54;49.37
62038;BME280;47991;42.974;12.082;2023-07-24T08:41:10;97553.60;;;31.67;50.55
62038;BME280;47991;42.974;12.082;2023-07-24T08:43:38;97553.27;;;31.88;49.50
62038;BME280;47991;42.974;12.082;2023-07-24T08:46:06;97554.36;;;31.97;49.35
62038;BME280;47991;42.974;12.082;2023-07-24T08:48:43;97546.78;;;31.96;48.42
62038;BME280;47991;42.974;12.082;2023-07-24T08:51:15;97538.39;;;31.96;49.18
62038;BME280;47991;42.974;12.082;2023-07-24T08:53:51;97528.08;;;32.12;48.45
62038;BME280;47991;42.974;12.082;2023-07-24T08:56:19;97519.22;;;32.37;48.14
62038;BME280;47991;42.974;12.082;2023-07-24T08:58:46;97517.48;;;32.38;47.45
62038;BME280;47991;42.974;12.082;2023-07-24T09:01:12;97518.09;;;32.31;49.04
62038;BME280;47991;42.974;12.082;2023-07-24T09:03:40;97510.08;;;32.19;49.10
62038;BME280;47991;42.974;12.082;2023-07-24T09:06:07;97506.27;;;32.34;49.54
62038;BME280;47991;42.974;12.082;2023-07-24T09:08:39;97493.61;;;32.10;48.93
62038;BME280;47991;42.974;12.082;2023-07-24T09:11:08;97477.33;;;32.16;49.25
62038;BME280;47991;42.974;12.082;2023-07-24T09:13:37;97473.25;;;32.09;49.51
62038;BME280;47991;42.974;12.082;2023-07-24T09:16:04;97475.63;;;32.41;49.31
62038;BME280;47991;42.974;12.082;2023-07-24T09:18:41;97476.19;;;32.09;48.62
62038;BME280;47991;42.974;12.082;2023-07-24T09:21:10;97474.91;;;31.85;48.40
62038;BME280;47991;42.974;12.082;2023-07-24T09:23:40;97468.28;;;32.05;49.15
62038;BME280;47991;42.974;12.082;2023-07-24T09:26:10;97458.87;;;32.30;47.55
62038;BME280;47991;42.974;12.082;2023-07-24T09:28:37;97456.67;;;32.56;47.55
62038;BME280;47991;42.974;12.082;2023-07-24T09:31:04;97458.83;;;32.77;46.03
62038;BME280;47991;42.974;12.082;2023-07-24T09:33:39;97462.91;;;32.59;43.49
62038;BME280;47991;42.974;12.082;2023-07-24T09:36:08;97458.05;;;32.43;45.58
62038;BME280;47991;42.974;12.082;2023-07-24T09:38:36;97450.59;;;32.64;44.03
62038;BME280;47991;42.974;12.082;2023-07-24T09:41:04;97447.48;;;32.98;44.63
62038;BME280;47991;42.974;12.082;2023-07-24T09:43:32;97444.92;;;33.27;43.38
62038;BME280;47991;42.974;12.082;2023-07-24T09:46:00;97444.55;;;32.99;41.70
62038;BME280;47991;42.974;12.082;2023-07-24T09:48:27;97425.26;;;32.78;41.98
62038;BME280;47991;42.974;12.082;2023-07-24T09:50:56;97414.58;;;32.94;43.12
62038;BME280;47991;42.974;12.082;2023-07-24T09:53:34;97413.94;;;33.20;41.93
62038;BME280;47991;42.974;12.082;2023-07-24T09:56:07;97412.31;;;33.50;42.07
62038;BME280;47991;42.974;12.082;2023-07-24T09:58:38;97415.59;;;33.66;42.05
62038;BME280;47991;42.974;12.082;2023-07-24T10:01:07;97410.27;;;33.60;41.57
62038;BME280;47991;42.974;12.082;2023-07-24T10:03:38;97412.73;;;33.68;42.61
62038;BME280;47991;42.974;12.082;2023-07-24T10:06:07;97414.11;;;33.76;42.44
62038;BME280;47991;42.974;12.082;2023-07-24T10:08:38;97413.10;;;33.67;42.29
62038;BME280;47991;42.974;12.082;2023-07-24T10:11:06;97413.14;;;33.62;43.23
62038;BME280;47991;42.974;12.082;2023-07-24T10:13:34;97411.88;;;33.66;42.64
62038;BME280;47991;42.974;12.082;2023-07-24T10:16:03;97418.64;;;33.63;42.91
62038;BME280;47991;42.974;12.082;2023-07-24T10:18:43;97423.19;;;33.60;43.82
62038;BME280;47991;42.974;12.082;2023-07-24T10:21:11;97419.55;;;33.51;43.30
62038;BME280;47991;42.974;12.082;2023-07-24T10:23:45;97410.89;;;33.41;42.60
62038;BME280;47991;42.974;12.082;2023-07-24T10:26:15;97416.48;;;33.59;42.52
62038;BME280;47991;42.974;12.082;2023-07-24T10:28:46;97421.73;;;33.58;42.63
62038;BME280;47991;42.974;12.082;2023-07-24T10:31:25;97424.80;;;33.64;42.49
62038;BME280;47991;42.974;12.082;2023-07-24T10:33:54;97421.91;;;33.88;42.69
62038;BME280;47991;42.974;12.082;2023-07-24T10:36:23;97410.92;;;33.89;43.31
62038;BME280;47991;42.974;12.082;2023-07-24T10:38:55;97402.50;;;33.74;42.67
62038;BME280;47991;42.974;12.082;2023-07-24T10:41:22;97410.40;;;33.53;42.41
62038;BME280;47991;42.974;12.082;2023-07-24T10:43:51;97401.36;;;33.68;43.04
62038;BME280;47991;42.974;12.082;2023-07-24T10:46:20;97401.39;;;34.01;43.67
62038;BME280;47991;42.974;12.082;2023-07-24T10:48:49;97406.23;;;34.26;42.71
62038;BME280;47991;42.974;12.082;2023-07-24T10:51:17;97396.41;;;34.26;42.91
62038;BME280;47991;42.974;12.082;2023-07-24T10:53:47;97386.81;;;34.31;42.33
62038;BME280;47991;42.974;12.082;2023-07-24T10:56:15;97374.46;;;34.42;42.04
62038;BME280;47991;42.974;12.082;2023-07-24T10:58:42;97371.41;;;34.51;42.26
62038;BME280;47991;42.974;12.082;2023-07-24T11:01:10;97374.95;;;34.51;42.00
62038;BME280;47991;42.974;12.082;2023-07-24T11:03:41;97380.33;;;34.31;41.75
62038;BME280;47991;42.974;12.082;2023-07-24T11:06:16;97376.35;;;34.04;42.31
62038;BME280;47991;42.974;12.082;2023-07-24T11:08:54;97372.55;;;34.33;43.65
62038;BME280;47991;42.974;12.082;2023-07-24T11:11:35;97367.36;;;34.01;42.13
62038;BME280;47991;42.974;12.082;2023-07-24T11:14:02;97359.42;;;34.05;43.24
62038;BME280;47991;42.974;12.082;2023-07-24T11:16:30;97353.55;;;34.07;43.12
62038;BME280;47991;42.974;12.082;2023-07-24T11:18:58;97360.13;;;34.28;43.71
62038;BME280;47991;42.974;12.082;2023-07-24T11:21:26;97343.56;;;34.44;43.02
62038;BME280;47991;42.974;12.082;2023-07-24T11:23:54;97347.83;;;34.19;42.79
62038;BME280;47991;42.974;12.082;2023-07-24T11:26:23;97326.86;;;33.79;43.80
62038;BME280;47991;42.974;12.082;2023-07-24T11:28:52;97326.68;;;33.62;44.12
62038;BME280;47991;42.974;12.082;2023-07-24T11:31:20;97312.52;;;33.15;44.50
62038;BME280;47991;42.974;12.082;2023-07-24T11:33:51;97291.29;;;33.40;44.85
62038;BME280;47991;42.974;12.082;2023-07-24T11:36:19;97289.01;;;33.99;44.00
62038;BME280;47991;42.974;12.082;2023-07-24T11:38:47;97318.27;;;34.35;43.79
62038;BME280;47991;42.974;12.082;2023-07-24T11:41:16;97318.89;;;34.80;43.66
62038;BME280;47991;42.974;12.082;2023-07-24T11:43:47;97312.64;;;34.72;42.57
62038;BME280;47991;42.974;12.082;2023-07-24T11:46:28;97319.15;;;34.80;41.74
62038;BME280;47991;42.974;12.082;2023-07-24T11:48:55;97311.43;;;34.65;42.54
62038;BME280;47991;42.974;12.082;2023-07-24T11:51:26;97316.40;;;34.61;43.51
62038;BME280;47991;42.974;12.082;2023-07-24T11:54:05;97317.74;;;34.52;44.02
62038;BME280;47991;42.974;12.082;2023-07-24T11:56:33;97319.86;;;34.43;43.34
62038;BME280;47991;42.974;12.082;2023-07-24T11:59:13;97318.66;;;34.45;43.92
62038;BME280;47991;42.974;12.082;2023-07-24T12:01:48;97313.67;;;34.51;43.68
62038;BME280;47991;42.974;12.082;2023-07-24T12:04:17;97314.98;;;34.65;43.72
62038;BME280;47991;42.974;12.082;2023-07-24T12:06:44;97315.89;;;34.80;44.29
62038;BME280;47991;42.974;12.082;2023-07-24T12:09:11;97305.55;;;34.98;43.90
62038;BME280;47991;42.974;12.082;2023-07-24T12:11:43;97311.08;;;34.94;43.06
62038;BME280;47991;42.974;12.082;2023-07-24T12:14:10;97309.36;;;34.77;42.45
62038;BME280;47991;42.974;12.082;2023-07-24T12:16:38;97311.66;;;34.70;42.02
62038;BME280;47991;42.974;12.082;2023-07-24T12:19:05;97312.20;;;34.78;42.50
62038;BME280;47991;42.974;12.082;2023-07-24T12:21:32;97293.04;;;34.99;41.21
62038;BME280;47991;42.974;12.082;2023-07-24T12:23:59;97282.48;;;35.03;40.84
62038;BME280;47991;42.974;12.082;2023-07-24T12:26:26;97265.55;;;34.93;40.29
62038;BME280;47991;42.974;12.082;2023-07-24T12:28:54;97253.77;;;35.05;40.22
62038;BME280;47991;42.974;12.082;2023-07-24T12:31:21;97240.39;;;35.04;40.45
62038;BME280;47991;42.974;12.082;2023-07-24T12:33:49;97230.71;;;35.16;40.85
62038;BME280;47991;42.974;12.082;2023-07-24T12:36:16;97229.05;;;35.18;40.26
62038;BME280;47991;42.974;12.082;2023-07-24T12:38:42;97229.66;;;34.95;41.01
62038;BME280;47991;42.974;12.082;2023-07-24T12:41:09;97223.94;;;34.84;41.93
62038;BME280;47991;42.974;12.082;2023-07-24T12:43:36;97229.31;;;34.87;41.76
62038;BME280;47991;42.974;12.082;2023-07-24T12:46:03;97243.23;;;34.70;42.16
62038;BME280;47991;42.974;12.082;2023-07-24T12:48:30;97246.71;;;34.61;42.85
62038;BME280;47991;42.974;12.082;2023-07-24T12:50:58;97247.27;;;34.52;43.23
62038;BME280;47991;42.974;12.082;2023-07-24T12:53:26;97254.79;;;34.50;43.74
62038;BME280;47991;42.974;12.082;2023-07-24T12:55:53;97255.09;;;34.68;43.80
62038;BME280;47991;42.974;12.082;2023-07-24T12:58:21;97267.63;;;34.83;43.96
62038;BME280;47991;42.974;12.082;2023-07-24T13:00:47;97279.81;;;34.93;43.90
62038;BME280;47991;42.974;12.082;2023-07-24T13:03:14;97280.18;;;34.99;43.82
62038;BME280;47991;42.974;12.082;2023-07-24T13:05:41;97280.44;;;35.01;44.05
62038;BME280;47991;42.974;12.082;2023-07-24T13:08:08;97272.67;;;35.13;43.57
62038;BME280;47991;42.974;12.082;2023-07-24T13:10:35;97259.73;;;35.29;43.37
62038;BME280;47991;42.974;12.082;2023-07-24T13:13:02;97243.58;;;35.44;42.92